sensor_id;sensor_type;location;lat;lon;timestamp;P1;durP1;ratioP1;P2;durP2;ratioP2
2299;SDS011;1158;48.750;9.078;2023-12-14T00:01:12;4.07;;;2.30;;
2299;SDS011;1158;48.750;9.078;2023-12-14T00:03:39;3.70;;;1.97;;
2299;SDS011;1158;48.750;9.078;2023-12-14T00:06:07;2.97;;;1.97;;
2299;SDS011;1158;48.750;9.078;2023-12-14T00:08:34;2.67;;;1.97;;
2299;SDS011;1158;48.750;9.078;2023-12-14T00:11:04;3.00;;;1.80;;
2299;SDS011;1158;48.750;9.078;2023-12-14T00:13:31;6.37;;;2.50;;
2299;SDS011;1158;48.750;9.078;2023-12-14T00:15:58;5.43;;;2.80;;
2299;SDS011;1158;48.750;9.078;2023-12-14T00:18:26;5.10;;;2.60;;
2299;SDS011;1158;48.750;9.078;2023-12-14T00:20:53;5.43;;;3.23;;
2299;SDS011;1158;48.750;9.078;2023-12-14T00:23:21;8.93;;;3.30;;
2299;SDS011;1158;48.750;9.078;2023-12-14T00:25:48;5.13;;;2.30;;
2299;SDS011;1158;48.750;9.078;2023-12-14T00:28:16;4.10;;;2.70;;
2299;SDS011;1158;48.750;9.078;2023-12-14T00:30:43;5.50;;;3.30;;
2299;SDS011;1158;48.750;9.078;2023-12-14T00:33:10;4.77;;;2.80;;
2299;SDS011;1158;48.750;9.078;2023-12-14T00:35:37;5.93;;;2.37;;
2299;SDS011;1158;48.750;9.078;2023-12-14T00:38:04;4.80;;;2.67;;
2299;SDS011;1158;48.750;9.078;2023-12-14T00:40:31;4.30;;;2.60;;
2299;SDS011;1158;48.750;9.078;2023-12-14T00:42:58;8.13;;;3.07;;
2299;SDS011;1158;48.750;9.078;2023-12-14T00:45:27;4.90;;;2.60;;
2299;SDS011;1158;48.750;9.078;2023-12-14T00:47:54;5.23;;;3.40;;
2299;SDS011;1158;48.750;9.078;2023-12-14T00:50:21;3.93;;;2.43;;
2299;SDS011;1158;48.750;9.078;2023-12-14T00:52:48;4.20;;;2.33;;
2299;SDS011;1158;48.750;9.078;2023-12-14T00:55:16;3.70;;;2.63;;
2299;SDS011;1158;48.750;9.078;2023-12-14T00:57:42;3.30;;;2.07;;
2299;SDS011;1158;48.750;9.078;2023-12-14T01:00:09;3.40;;;2.43;;
2299;SDS011;1158;48.750;9.078;2023-12-14T01:02:37;3.37;;;2.07;;
2299;SDS011;1158;48.750;9.078;2023-12-14T01:05:04;4.10;;;2.50;;
2299;SDS011;1158;48.750;9.078;2023-12-14T01:07:31;4.67;;;2.60;;
2299;SDS011;1158;48.750;9.078;2023-12-14T01:09:58;4.23;;;2.30;;
2299;SDS011;1158;48.750;9.078;2023-12-14T01:12:26;5.87;;;2.53;;
2299;SDS011;1158;48.750;9.078;2023-12-14T01:14:53;4.93;;;2.50;;
2299;SDS011;1158;48.750;9.078;2023-12-14T01:17:20;4.40;;;2.40;;
2299;SDS011;1158;48.750;9.078;2023-12-14T01:19:49;4.90;;;2.30;;
2299;SDS011;1158;48.750;9.078;2023-12-14T01:22:16;4.87;;;2.37;;
2299;SDS011;1158;48.750;9.078;2023-12-14T01:24:43;4.50;;;2.63;;
2299;SDS011;1158;48.750;9.078;2023-12-14T01:27:10;4.90;;;2.40;;
2299;SDS011;1158;48.750;9.078;2023-12-14T01:29:38;3.30;;;2.10;;
2299;SDS011;1158;48.750;9.078;2023-12-14T01:32:06;4.77;;;2.27;;
2299;SDS011;1158;48.750;9.078;2023-12-14T01:34:33;4.83;;;2.33;;
2299;SDS011;1158;48.750;9.078;2023-12-14T01:37:01;3.80;;;2.10;;
2299;SDS011;1158;48.750;9.078;2023-12-14T01:39:28;4.70;;;2.93;;
2299;SDS011;1158;48.750;9.078;2023-12-14T01:41:55;3.80;;;2.27;;
2299;SDS011;1158;48.750;9.078;2023-12-14T01:44:22;4.67;;;2.23;;
2299;SDS011;1158;48.750;9.078;2023-12-14T01:46:49;8.13;;;2.90;;
2299;SDS011;1158;48.750;9.078;2023-12-14T01:49:16;4.50;;;2.73;;
2299;SDS011;1158;48.750;9.078;2023-12-14T01:51:44;3.70;;;2.83;;
2299;SDS011;1158;48.750;9.078;2023-12-14T01:54:12;4.20;;;2.60;;
2299;SDS011;1158;48.750;9.078;2023-12-14T01:56:39;4.27;;;2.40;;
2299;SDS011;1158;48.750;9.078;2023-12-14T01:59:06;4.60;;;2.47;;
2299;SDS011;1158;48.750;9.078;2023-12-14T02:01:35;3.50;;;2.33;;
2299;SDS011;1158;48.750;9.078;2023-12-14T02:04:04;3.70;;;2.13;;
2299;SDS011;1158;48.750;9.078;2023-12-14T02:06:32;3.40;;;2.47;;
2299;SDS011;1158;48.750;9.078;2023-12-14T02:08:59;6.67;;;2.43;;
2299;SDS011;1158;48.750;9.078;2023-12-14T02:11:28;4.70;;;2.70;;
2299;SDS011;1158;48.750;9.078;2023-12-14T02:13:55;6.50;;;2.87;;
2299;SDS011;1158;48.750;9.078;2023-12-14T02:16:22;5.97;;;2.43;;
2299;SDS011;1158;48.750;9.078;2023-12-14T02:18:49;3.63;;;2.30;;
2299;SDS011;1158;48.750;9.078;2023-12-14T02:21:16;4.30;;;2.80;;
2299;SDS011;1158;48.750;9.078;2023-12-14T02:23:45;5.30;;;2.70;;
2299;SDS011;1158;48.750;9.078;2023-12-14T02:26:13;4.93;;;2.90;;
2299;SDS011;1158;48.750;9.078;2023-12-14T02:28:40;5.33;;;2.57;;
2299;SDS011;1158;48.750;9.078;2023-12-14T02:31:07;4.80;;;2.83;;
2299;SDS011;1158;48.750;9.078;2023-12-14T02:33:34;7.07;;;3.03;;
2299;SDS011;1158;48.750;9.078;2023-12-14T02:36:01;5.83;;;2.87;;
2299;SDS011;1158;48.750;9.078;2023-12-14T02:38:29;3.20;;;2.23;;
2299;SDS011;1158;48.750;9.078;2023-12-14T02:40:57;6.43;;;2.77;;
2299;SDS011;1158;48.750;9.078;2023-12-14T02:43:24;4.80;;;2.63;;
2299;SDS011;1158;48.750;9.078;2023-12-14T02:45:51;3.87;;;2.57;;
2299;SDS011;1158;48.750;9.078;2023-12-14T02:48:20;3.50;;;2.17;;
2299;SDS011;1158;48.750;9.078;2023-12-14T02:50:47;4.13;;;2.53;;
2299;SDS011;1158;48.750;9.078;2023-12-14T02:53:14;6.57;;;2.67;;
2299;SDS011;1158;48.750;9.078;2023-12-14T02:55:41;6.30;;;2.73;;
2299;SDS011;1158;48.750;9.078;2023-12-14T02:58:10;4.60;;;2.60;;
2299;SDS011;1158;48.750;9.078;2023-12-14T03:00:37;6.43;;;3.00;;
2299;SDS011;1158;48.750;9.078;2023-12-14T03:03:04;4.93;;;2.40;;
2299;SDS011;1158;48.750;9.078;2023-12-14T03:05:31;3.87;;;2.87;;
2299;SDS011;1158;48.750;9.078;2023-12-14T03:07:58;5.70;;;2.60;;
2299;SDS011;1158;48.750;9.078;2023-12-14T03:10:25;5.80;;;2.77;;
2299;SDS011;1158;48.750;9.078;2023-12-14T03:12:52;4.53;;;3.00;;
2299;SDS011;1158;48.750;9.078;2023-12-14T03:15:20;4.30;;;3.00;;
2299;SDS011;1158;48.750;9.078;2023-12-14T03:17:48;4.30;;;2.83;;
2299;SDS011;1158;48.750;9.078;2023-12-14T03:20:15;4.77;;;2.87;;
2299;SDS011;1158;48.750;9.078;2023-12-14T03:22:42;3.90;;;2.50;;
2299;SDS011;1158;48.750;9.078;2023-12-14T03:25:09;4.20;;;2.80;;
2299;SDS011;1158;48.750;9.078;2023-12-14T03:27:36;5.83;;;3.50;;
2299;SDS011;1158;48.750;9.078;2023-12-14T03:30:02;6.93;;;3.60;;
2299;SDS011;1158;48.750;9.078;2023-12-14T03:32:34;4.20;;;3.03;;
2299;SDS011;1158;48.750;9.078;2023-12-14T03:35:01;4.47;;;3.27;;
2299;SDS011;1158;48.750;9.078;2023-12-14T03:37:28;4.50;;;3.00;;
2299;SDS011;1158;48.750;9.078;2023-12-14T03:39:55;5.80;;;3.40;;
2299;SDS011;1158;48.750;9.078;2023-12-14T03:42:22;5.20;;;3.03;;
2299;SDS011;1158;48.750;9.078;2023-12-14T03:44:49;4.03;;;3.10;;
2299;SDS011;1158;48.750;9.078;2023-12-14T03:47:16;6.77;;;3.50;;
2299;SDS011;1158;48.750;9.078;2023-12-14T03:49:45;11.50;;;3.90;;
2299;SDS011;1158;48.750;9.078;2023-12-14T03:52:11;8.07;;;4.20;;
2299;SDS011;1158;48.750;9.078;2023-12-14T03:54:38;7.30;;;3.63;;
2299;SDS011;1158;48.750;9.078;2023-12-14T03:57:05;6.33;;;3.77;;
2299;SDS011;1158;48.750;9.078;2023-12-14T03:59:32;7.50;;;3.53;;
2299;SDS011;1158;48.750;9.078;2023-12-14T04:01:59;5.90;;;3.97;;
2299;SDS011;1158;48.750;9.078;2023-12-14T04:04:26;6.23;;;3.80;;
2299;SDS011;1158;48.750;9.078;2023-12-14T04:06:55;7.53;;;3.80;;
2299;SDS011;1158;48.750;9.078;2023-12-14T04:09:22;6.90;;;3.63;;
2299;SDS011;1158;48.750;9.078;2023-12-14T04:11:49;6.67;;;3.73;;
2299;SDS011;1158;48.750;9.078;2023-12-14T04:14:16;6.23;;;3.97;;
2299;SDS011;1158;48.750;9.078;2023-12-14T04:16:43;6.20;;;4.33;;
2299;SDS011;1158;48.750;9.078;2023-12-14T04:19:10;9.83;;;3.70;;
2299;SDS011;1158;48.750;9.078;2023-12-14T04:21:37;8.50;;;4.13;;
2299;SDS011;1158;48.750;9.078;2023-12-14T04:24:06;6.80;;;3.70;;
2299;SDS011;1158;48.750;9.078;2023-12-14T04:26:34;5.73;;;3.40;;
2299;SDS011;1158;48.750;9.078;2023-12-14T04:29:01;7.73;;;4.40;;
2299;SDS011;1158;48.750;9.078;2023-12-14T04:31:28;8.60;;;4.50;;
2299;SDS011;1158;48.750;9.078;2023-12-14T04:33:55;7.17;;;3.80;;
2299;SDS011;1158;48.750;9.078;2023-12-14T04:36:22;7.33;;;4.83;;
2299;SDS011;1158;48.750;9.078;2023-12-14T04:38:49;10.33;;;4.80;;
2299;SDS011;1158;48.750;9.078;2023-12-14T04:41:17;6.27;;;4.17;;
2299;SDS011;1158;48.750;9.078;2023-12-14T04:43:44;8.13;;;4.20;;
2299;SDS011;1158;48.750;9.078;2023-12-14T04:46:12;7.47;;;4.60;;
2299;SDS011;1158;48.750;9.078;2023-12-14T04:48:39;9.27;;;4.60;;
2299;SDS011;1158;48.750;9.078;2023-12-14T04:51:08;6.60;;;4.70;;
2299;SDS011;1158;48.750;9.078;2023-12-14T04:53:37;7.53;;;4.20;;
2299;SDS011;1158;48.750;9.078;2023-12-14T04:56:05;14.17;;;5.23;;
2299;SDS011;1158;48.750;9.078;2023-12-14T04:58:33;9.13;;;5.53;;
2299;SDS011;1158;48.750;9.078;2023-12-14T05:01:00;9.37;;;5.83;;
2299;SDS011;1158;48.750;9.078;2023-12-14T05:03:27;10.37;;;5.20;;
2299;SDS011;1158;48.750;9.078;2023-12-14T05:05:54;11.27;;;6.50;;
2299;SDS011;1158;48.750;9.078;2023-12-14T05:08:21;10.30;;;5.80;;
2299;SDS011;1158;48.750;9.078;2023-12-14T05:10:48;11.03;;;6.33;;
2299;SDS011;1158;48.750;9.078;2023-12-14T05:13:16;11.07;;;6.17;;
2299;SDS011;1158;48.750;9.078;2023-12-14T05:15:44;9.83;;;5.87;;
2299;SDS011;1158;48.750;9.078;2023-12-14T05:18:11;7.97;;;5.93;;
2299;SDS011;1158;48.750;9.078;2023-12-14T05:20:38;8.53;;;5.70;;
2299;SDS011;1158;48.750;9.078;2023-12-14T05:23:06;9.97;;;6.20;;
2299;SDS011;1158;48.750;9.078;2023-12-14T05:25:33;13.30;;;5.83;;
2299;SDS011;1158;48.750;9.078;2023-12-14T05:28:00;12.33;;;6.37;;
2299;SDS011;1158;48.750;9.078;2023-12-14T05:30:27;10.73;;;5.80;;
2299;SDS011;1158;48.750;9.078;2023-12-14T05:32:55;11.93;;;6.37;;
2299;SDS011;1158;48.750;9.078;2023-12-14T05:35:22;16.17;;;5.90;;
2299;SDS011;1158;48.750;9.078;2023-12-14T05:37:49;13.73;;;6.67;;
2299;SDS011;1158;48.750;9.078;2023-12-14T05:40:17;12.53;;;5.83;;
2299;SDS011;1158;48.750;9.078;2023-12-14T05:42:44;13.70;;;5.00;;
2299;SDS011;1158;48.750;9.078;2023-12-14T05:45:11;10.77;;;5.77;;
2299;SDS011;1158;48.750;9.078;2023-12-14T05:47:38;10.10;;;5.90;;
2299;SDS011;1158;48.750;9.078;2023-12-14T05:50:08;13.63;;;7.10;;
2299;SDS011;1158;48.750;9.078;2023-12-14T05:52:35;13.70;;;5.87;;
2299;SDS011;1158;48.750;9.078;2023-12-14T05:55:03;10.50;;;6.10;;
2299;SDS011;1158;48.750;9.078;2023-12-14T05:57:30;13.90;;;6.87;;
2299;SDS011;1158;48.750;9.078;2023-12-14T05:59:57;13.43;;;6.97;;
2299;SDS011;1158;48.750;9.078;2023-12-14T06:02:24;10.87;;;6.17;;
2299;SDS011;1158;48.750;9.078;2023-12-14T06:04:51;10.30;;;5.60;;
2299;SDS011;1158;48.750;9.078;2023-12-14T06:07:19;13.10;;;7.50;;
2299;SDS011;1158;48.750;9.078;2023-12-14T06:09:46;12.17;;;7.20;;
2299;SDS011;1158;48.750;9.078;2023-12-14T06:12:13;11.70;;;7.47;;
2299;SDS011;1158;48.750;9.078;2023-12-14T06:14:41;14.80;;;6.50;;
2299;SDS011;1158;48.750;9.078;2023-12-14T06:17:10;13.07;;;6.60;;
2299;SDS011;1158;48.750;9.078;2023-12-14T06:19:37;12.67;;;6.60;;
2299;SDS011;1158;48.750;9.078;2023-12-14T06:22:04;13.03;;;6.77;;
2299;SDS011;1158;48.750;9.078;2023-12-14T06:24:32;10.37;;;6.90;;
2299;SDS011;1158;48.750;9.078;2023-12-14T06:26:59;14.20;;;7.23;;
2299;SDS011;1158;48.750;9.078;2023-12-14T06:29:26;14.60;;;7.30;;
2299;SDS011;1158;48.750;9.078;2023-12-14T06:31:53;13.60;;;7.40;;
2299;SDS011;1158;48.750;9.078;2023-12-14T06:34:20;11.83;;;7.10;;
2299;SDS011;1158;48.750;9.078;2023-12-14T06:36:47;21.20;;;7.27;;
2299;SDS011;1158;48.750;9.078;2023-12-14T06:39:14;12.70;;;6.90;;
2299;SDS011;1158;48.750;9.078;2023-12-14T06:41:43;11.77;;;6.97;;
2299;SDS011;1158;48.750;9.078;2023-12-14T06:44:10;10.37;;;6.70;;
2299;SDS011;1158;48.750;9.078;2023-12-14T06:46:37;19.67;;;7.23;;
2299;SDS011;1158;48.750;9.078;2023-12-14T06:49:04;15.27;;;6.40;;
2299;SDS011;1158;48.750;9.078;2023-12-14T06:51:31;10.50;;;5.70;;
2299;SDS011;1158;48.750;9.078;2023-12-14T06:53:58;14.90;;;6.00;;
2299;SDS011;1158;48.750;9.078;2023-12-14T06:56:25;12.80;;;7.20;;
2299;SDS011;1158;48.750;9.078;2023-12-14T06:58:54;10.13;;;5.60;;
2299;SDS011;1158;48.750;9.078;2023-12-14T07:01:21;12.47;;;5.83;;
2299;SDS011;1158;48.750;9.078;2023-12-14T07:03:48;13.73;;;6.33;;
2299;SDS011;1158;48.750;9.078;2023-12-14T07:06:16;12.00;;;6.13;;
2299;SDS011;1158;48.750;9.078;2023-12-14T07:08:43;8.90;;;5.03;;
2299;SDS011;1158;48.750;9.078;2023-12-14T07:11:11;10.00;;;5.43;;
2299;SDS011;1158;48.750;9.078;2023-12-14T07:13:38;8.37;;;4.73;;
2299;SDS011;1158;48.750;9.078;2023-12-14T07:16:07;12.90;;;6.20;;
2299;SDS011;1158;48.750;9.078;2023-12-14T07:18:34;10.57;;;6.50;;
2299;SDS011;1158;48.750;9.078;2023-12-14T07:21:01;10.63;;;6.03;;
2299;SDS011;1158;48.750;9.078;2023-12-14T07:23:29;12.20;;;5.60;;
2299;SDS011;1158;48.750;9.078;2023-12-14T07:25:56;8.97;;;5.30;;
2299;SDS011;1158;48.750;9.078;2023-12-14T07:28:23;9.07;;;5.37;;
2299;SDS011;1158;48.750;9.078;2023-12-14T07:30:50;9.63;;;5.33;;
2299;SDS011;1158;48.750;9.078;2023-12-14T07:33:18;9.33;;;5.17;;
2299;SDS011;1158;48.750;9.078;2023-12-14T07:35:45;9.13;;;5.30;;
2299;SDS011;1158;48.750;9.078;2023-12-14T07:38:12;12.80;;;5.80;;
2299;SDS011;1158;48.750;9.078;2023-12-14T07:40:40;12.57;;;6.40;;
2299;SDS011;1158;48.750;9.078;2023-12-14T07:43:07;11.07;;;5.73;;
2299;SDS011;1158;48.750;9.078;2023-12-14T07:45:34;10.20;;;6.13;;
2299;SDS011;1158;48.750;9.078;2023-12-14T07:48:01;10.30;;;5.80;;
2299;SDS011;1158;48.750;9.078;2023-12-14T07:50:31;10.53;;;5.83;;
2299;SDS011;1158;48.750;9.078;2023-12-14T07:52:58;11.10;;;6.53;;
2299;SDS011;1158;48.750;9.078;2023-12-14T07:55:25;11.67;;;5.50;;
2299;SDS011;1158;48.750;9.078;2023-12-14T07:57:52;14.83;;;6.33;;
2299;SDS011;1158;48.750;9.078;2023-12-14T08:00:19;10.17;;;5.53;;
2299;SDS011;1158;48.750;9.078;2023-12-14T08:02:46;11.10;;;5.90;;
2299;SDS011;1158;48.750;9.078;2023-12-14T08:05:13;10.50;;;5.83;;
2299;SDS011;1158;48.750;9.078;2023-12-14T08:07:42;10.03;;;6.10;;
2299;SDS011;1158;48.750;9.078;2023-12-14T08:10:09;10.37;;;5.63;;
2299;SDS011;1158;48.750;9.078;2023-12-14T08:12:36;9.20;;;4.50;;
2299;SDS011;1158;48.750;9.078;2023-12-14T08:15:03;10.93;;;5.33;;
2299;SDS011;1158;48.750;9.078;2023-12-14T08:17:33;12.43;;;5.47;;
2299;SDS011;1158;48.750;9.078;2023-12-14T08:20:00;14.80;;;5.10;;
2299;SDS011;1158;48.750;9.078;2023-12-14T08:22:29;11.87;;;5.93;;
2299;SDS011;1158;48.750;9.078;2023-12-14T08:24:57;11.57;;;6.20;;
2299;SDS011;1158;48.750;9.078;2023-12-14T08:27:24;10.57;;;5.90;;
2299;SDS011;1158;48.750;9.078;2023-12-14T08:29:51;14.63;;;6.60;;
2299;SDS011;1158;48.750;9.078;2023-12-14T08:32:18;11.07;;;5.70;;
2299;SDS011;1158;48.750;9.078;2023-12-14T08:34:45;11.30;;;6.37;;
2299;SDS011;1158;48.750;9.078;2023-12-14T08:37:12;13.30;;;6.60;;
2299;SDS011;1158;48.750;9.078;2023-12-14T08:39:39;12.03;;;6.20;;
2299;SDS011;1158;48.750;9.078;2023-12-14T08:42:08;11.80;;;6.57;;
2299;SDS011;1158;48.750;9.078;2023-12-14T08:44:38;11.33;;;6.00;;
2299;SDS011;1158;48.750;9.078;2023-12-14T08:47:05;12.80;;;7.10;;
2299;SDS011;1158;48.750;9.078;2023-12-14T08:49:34;10.93;;;6.73;;
2299;SDS011;1158;48.750;9.078;2023-12-14T08:52:01;17.00;;;7.57;;
2299;SDS011;1158;48.750;9.078;2023-12-14T08:54:29;13.27;;;6.50;;
2299;SDS011;1158;48.750;9.078;2023-12-14T08:56:56;13.77;;;6.47;;
2299;SDS011;1158;48.750;9.078;2023-12-14T08:59:24;14.17;;;6.93;;
2299;SDS011;1158;48.750;9.078;2023-12-14T09:01:52;12.53;;;7.40;;
2299;SDS011;1158;48.750;9.078;2023-12-14T09:04:19;13.97;;;7.90;;
2299;SDS011;1158;48.750;9.078;2023-12-14T09:06:46;15.13;;;8.43;;
2299;SDS011;1158;48.750;9.078;2023-12-14T09:09:13;19.20;;;9.50;;
2299;SDS011;1158;48.750;9.078;2023-12-14T09:11:40;14.03;;;9.00;;
2299;SDS011;1158;48.750;9.078;2023-12-14T09:14:07;20.83;;;9.30;;
2299;SDS011;1158;48.750;9.078;2023-12-14T09:16:35;18.20;;;9.20;;
2299;SDS011;1158;48.750;9.078;2023-12-14T09:19:02;17.10;;;9.53;;
2299;SDS011;1158;48.750;9.078;2023-12-14T09:21:29;15.73;;;9.07;;
2299;SDS011;1158;48.750;9.078;2023-12-14T09:23:56;15.33;;;8.87;;
2299;SDS011;1158;48.750;9.078;2023-12-14T09:26:24;20.23;;;8.73;;
2299;SDS011;1158;48.750;9.078;2023-12-14T09:28:51;15.50;;;8.57;;
2299;SDS011;1158;48.750;9.078;2023-12-14T09:31:18;15.90;;;8.73;;
2299;SDS011;1158;48.750;9.078;2023-12-14T09:33:46;16.47;;;9.20;;
2299;SDS011;1158;48.750;9.078;2023-12-14T09:36:13;17.60;;;9.63;;
2299;SDS011;1158;48.750;9.078;2023-12-14T09:38:40;16.53;;;10.37;;
2299;SDS011;1158;48.750;9.078;2023-12-14T09:41:07;14.47;;;8.87;;
2299;SDS011;1158;48.750;9.078;2023-12-14T09:43:34;15.67;;;9.90;;
2299;SDS011;1158;48.750;9.078;2023-12-14T09:46:01;15.47;;;9.20;;
2299;SDS011;1158;48.750;9.078;2023-12-14T09:48:29;16.87;;;8.63;;
2299;SDS011;1158;48.750;9.078;2023-12-14T09:50:57;15.50;;;9.53;;
2299;SDS011;1158;48.750;9.078;2023-12-14T09:53:24;15.83;;;9.50;;
2299;SDS011;1158;48.750;9.078;2023-12-14T09:55:51;15.30;;;9.33;;
2299;SDS011;1158;48.750;9.078;2023-12-14T09:58:18;15.17;;;10.13;;
2299;SDS011;1158;48.750;9.078;2023-12-14T10:00:45;20.93;;;10.77;;
2299;SDS011;1158;48.750;9.078;2023-12-14T10:03:20;14.73;;;9.20;;
2299;SDS011;1158;48.750;9.078;2023-12-14T10:05:47;14.73;;;9.70;;
2299;SDS011;1158;48.750;9.078;2023-12-14T10:08:16;16.70;;;10.13;;
2299;SDS011;1158;48.750;9.078;2023-12-14T10:10:43;14.70;;;10.20;;
2299;SDS011;1158;48.750;9.078;2023-12-14T10:13:10;13.13;;;9.17;;
2299;SDS011;1158;48.750;9.078;2023-12-14T10:15:40;16.80;;;10.53;;
2299;SDS011;1158;48.750;9.078;2023-12-14T10:18:08;17.87;;;9.43;;
2299;SDS011;1158;48.750;9.078;2023-12-14T10:20:35;17.30;;;10.50;;
2299;SDS011;1158;48.750;9.078;2023-12-14T10:23:03;16.63;;;8.97;;
2299;SDS011;1158;48.750;9.078;2023-12-14T10:25:32;17.30;;;8.77;;
2299;SDS011;1158;48.750;9.078;2023-12-14T10:27:59;14.60;;;8.67;;
2299;SDS011;1158;48.750;9.078;2023-12-14T10:30:28;11.33;;;7.90;;
2299;SDS011;1158;48.750;9.078;2023-12-14T10:32:55;11.60;;;7.00;;
2299;SDS011;1158;48.750;9.078;2023-12-14T10:35:22;16.53;;;8.87;;
2299;SDS011;1158;48.750;9.078;2023-12-14T10:37:50;12.67;;;8.10;;
2299;SDS011;1158;48.750;9.078;2023-12-14T10:40:18;13.17;;;8.00;;
2299;SDS011;1158;48.750;9.078;2023-12-14T10:42:47;12.87;;;7.80;;
2299;SDS011;1158;48.750;9.078;2023-12-14T10:45:14;16.53;;;9.00;;
2299;SDS011;1158;48.750;9.078;2023-12-14T10:47:43;12.53;;;7.27;;
2299;SDS011;1158;48.750;9.078;2023-12-14T10:50:10;12.23;;;7.30;;
2299;SDS011;1158;48.750;9.078;2023-12-14T10:52:38;11.53;;;7.33;;
2299;SDS011;1158;48.750;9.078;2023-12-14T10:55:06;11.67;;;7.60;;
2299;SDS011;1158;48.750;9.078;2023-12-14T10:57:34;13.70;;;6.27;;
2299;SDS011;1158;48.750;9.078;2023-12-14T11:00:03;12.60;;;7.27;;
2299;SDS011;1158;48.750;9.078;2023-12-14T11:02:40;11.77;;;6.87;;
2299;SDS011;1158;48.750;9.078;2023-12-14T11:05:11;13.30;;;6.73;;
2299;SDS011;1158;48.750;9.078;2023-12-14T11:07:44;10.33;;;6.17;;
2299;SDS011;1158;48.750;9.078;2023-12-14T11:10:12;11.43;;;5.77;;
2299;SDS011;1158;48.750;9.078;2023-12-14T11:12:49;10.40;;;5.37;;
2299;SDS011;1158;48.750;9.078;2023-12-14T11:15:18;9.00;;;5.20;;
2299;SDS011;1158;48.750;9.078;2023-12-14T11:20:27;7.97;;;5.10;;
2299;SDS011;1158;48.750;9.078;2023-12-14T11:22:55;8.40;;;5.37;;
2299;SDS011;1158;48.750;9.078;2023-12-14T11:25:23;8.00;;;4.97;;
2299;SDS011;1158;48.750;9.078;2023-12-14T11:27:50;10.30;;;5.97;;
2299;SDS011;1158;48.750;9.078;2023-12-14T11:30:18;6.10;;;4.90;;
2299;SDS011;1158;48.750;9.078;2023-12-14T11:32:46;7.60;;;4.43;;
2299;SDS011;1158;48.750;9.078;2023-12-14T11:35:14;6.07;;;3.87;;
2299;SDS011;1158;48.750;9.078;2023-12-14T11:37:41;6.53;;;3.83;;
2299;SDS011;1158;48.750;9.078;2023-12-14T11:40:08;6.00;;;3.37;;
2299;SDS011;1158;48.750;9.078;2023-12-14T11:42:36;5.60;;;2.40;;
2299;SDS011;1158;48.750;9.078;2023-12-14T11:45:03;4.40;;;2.37;;
2299;SDS011;1158;48.750;9.078;2023-12-14T11:47:32;4.20;;;2.17;;
2299;SDS011;1158;48.750;9.078;2023-12-14T11:49:59;7.33;;;3.30;;
2299;SDS011;1158;48.750;9.078;2023-12-14T11:52:27;4.90;;;2.00;;
2299;SDS011;1158;48.750;9.078;2023-12-14T11:54:54;4.73;;;2.13;;
2299;SDS011;1158;48.750;9.078;2023-12-14T11:57:21;2.90;;;1.50;;
2299;SDS011;1158;48.750;9.078;2023-12-14T11:59:50;3.00;;;1.90;;
2299;SDS011;1158;48.750;9.078;2023-12-14T12:02:22;2.97;;;1.90;;
2299;SDS011;1158;48.750;9.078;2023-12-14T12:04:52;3.10;;;1.80;;
2299;SDS011;1158;48.750;9.078;2023-12-14T12:07:19;2.93;;;1.77;;
2299;SDS011;1158;48.750;9.078;2023-12-14T12:09:46;2.67;;;1.80;;
2299;SDS011;1158;48.750;9.078;2023-12-14T12:12:13;3.50;;;2.10;;
2299;SDS011;1158;48.750;9.078;2023-12-14T12:14:40;2.50;;;1.63;;
2299;SDS011;1158;48.750;9.078;2023-12-14T12:17:08;2.50;;;1.63;;
2299;SDS011;1158;48.750;9.078;2023-12-14T12:19:36;3.57;;;2.20;;
2299;SDS011;1158;48.750;9.078;2023-12-14T12:22:04;4.67;;;2.60;;
2299;SDS011;1158;48.750;9.078;2023-12-14T12:24:31;3.30;;;2.00;;
2299;SDS011;1158;48.750;9.078;2023-12-14T12:26:58;3.97;;;2.27;;
2299;SDS011;1158;48.750;9.078;2023-12-14T12:29:25;4.70;;;2.43;;
2299;SDS011;1158;48.750;9.078;2023-12-14T12:31:53;3.37;;;2.20;;
2299;SDS011;1158;48.750;9.078;2023-12-14T12:34:20;3.93;;;2.33;;
2299;SDS011;1158;48.750;9.078;2023-12-14T12:36:47;5.33;;;3.50;;
2299;SDS011;1158;48.750;9.078;2023-12-14T12:39:15;4.80;;;2.77;;
2299;SDS011;1158;48.750;9.078;2023-12-14T12:41:43;3.73;;;2.50;;
2299;SDS011;1158;48.750;9.078;2023-12-14T12:44:10;6.40;;;3.30;;
2299;SDS011;1158;48.750;9.078;2023-12-14T12:46:37;5.17;;;2.83;;
2299;SDS011;1158;48.750;9.078;2023-12-14T12:49:05;5.13;;;3.27;;
2299;SDS011;1158;48.750;9.078;2023-12-14T12:51:32;5.30;;;3.07;;
2299;SDS011;1158;48.750;9.078;2023-12-14T12:53:58;4.30;;;2.40;;
2299;SDS011;1158;48.750;9.078;2023-12-14T12:56:27;3.80;;;2.27;;
2299;SDS011;1158;48.750;9.078;2023-12-14T12:58:54;5.70;;;2.43;;
2299;SDS011;1158;48.750;9.078;2023-12-14T13:01:21;5.13;;;2.87;;
2299;SDS011;1158;48.750;9.078;2023-12-14T13:03:51;4.37;;;3.03;;
2299;SDS011;1158;48.750;9.078;2023-12-14T13:06:18;3.53;;;2.30;;
2299;SDS011;1158;48.750;9.078;2023-12-14T13:08:45;2.90;;;1.87;;
2299;SDS011;1158;48.750;9.078;2023-12-14T13:11:12;4.43;;;2.27;;
2299;SDS011;1158;48.750;9.078;2023-12-14T13:13:40;3.10;;;2.33;;
2299;SDS011;1158;48.750;9.078;2023-12-14T13:16:08;6.00;;;2.73;;
2299;SDS011;1158;48.750;9.078;2023-12-14T13:18:37;4.53;;;2.60;;
2299;SDS011;1158;48.750;9.078;2023-12-14T13:21:05;4.60;;;2.83;;
2299;SDS011;1158;48.750;9.078;2023-12-14T13:23:32;4.63;;;2.90;;
2299;SDS011;1158;48.750;9.078;2023-12-14T13:25:59;5.53;;;2.80;;
2299;SDS011;1158;48.750;9.078;2023-12-14T13:28:26;3.40;;;2.43;;
2299;SDS011;1158;48.750;9.078;2023-12-14T13:30:54;6.57;;;3.07;;
2299;SDS011;1158;48.750;9.078;2023-12-14T13:33:21;5.63;;;3.30;;
2299;SDS011;1158;48.750;9.078;2023-12-14T13:35:49;4.40;;;3.23;;
2299;SDS011;1158;48.750;9.078;2023-12-14T13:38:16;4.67;;;2.63;;
2299;SDS011;1158;48.750;9.078;2023-12-14T13:40:43;6.30;;;3.53;;
2299;SDS011;1158;48.750;9.078;2023-12-14T13:43:10;5.60;;;3.27;;
2299;SDS011;1158;48.750;9.078;2023-12-14T13:45:38;6.17;;;3.47;;
2299;SDS011;1158;48.750;9.078;2023-12-14T13:48:08;7.70;;;3.60;;
2299;SDS011;1158;48.750;9.078;2023-12-14T13:50:35;9.30;;;3.40;;
2299;SDS011;1158;48.750;9.078;2023-12-14T13:53:02;5.53;;;3.87;;
2299;SDS011;1158;48.750;9.078;2023-12-14T13:55:30;9.33;;;4.57;;
2299;SDS011;1158;48.750;9.078;2023-12-14T13:57:57;9.13;;;4.03;;
2299;SDS011;1158;48.750;9.078;2023-12-14T14:00:25;7.90;;;4.00;;
2299;SDS011;1158;48.750;9.078;2023-12-14T14:02:52;6.73;;;4.30;;
2299;SDS011;1158;48.750;9.078;2023-12-14T14:05:21;8.63;;;4.70;;
2299;SDS011;1158;48.750;9.078;2023-12-14T14:07:48;12.70;;;4.90;;
2299;SDS011;1158;48.750;9.078;2023-12-14T14:10:15;9.83;;;5.40;;
2299;SDS011;1158;48.750;9.078;2023-12-14T14:12:43;9.00;;;5.20;;
2299;SDS011;1158;48.750;9.078;2023-12-14T14:15:10;7.77;;;4.80;;
2299;SDS011;1158;48.750;9.078;2023-12-14T14:17:37;9.87;;;5.47;;
2299;SDS011;1158;48.750;9.078;2023-12-14T14:20:04;10.70;;;6.30;;
2299;SDS011;1158;48.750;9.078;2023-12-14T14:22:33;9.90;;;6.37;;
2299;SDS011;1158;48.750;9.078;2023-12-14T14:25:00;11.73;;;6.60;;
2299;SDS011;1158;48.750;9.078;2023-12-14T14:27:27;12.87;;;7.60;;
2299;SDS011;1158;48.750;9.078;2023-12-14T14:29:54;15.13;;;7.30;;
2299;SDS011;1158;48.750;9.078;2023-12-14T14:32:21;12.40;;;6.93;;
2299;SDS011;1158;48.750;9.078;2023-12-14T14:34:49;13.17;;;6.83;;
2299;SDS011;1158;48.750;9.078;2023-12-14T14:37:16;15.27;;;6.80;;
2299;SDS011;1158;48.750;9.078;2023-12-14T14:39:44;15.60;;;9.23;;
2299;SDS011;1158;48.750;9.078;2023-12-14T14:42:11;16.60;;;8.50;;
2299;SDS011;1158;48.750;9.078;2023-12-14T14:44:38;18.07;;;8.47;;
2299;SDS011;1158;48.750;9.078;2023-12-14T14:47:06;18.00;;;8.40;;
2299;SDS011;1158;48.750;9.078;2023-12-14T14:49:33;16.77;;;8.90;;
2299;SDS011;1158;48.750;9.078;2023-12-14T14:52:00;16.03;;;8.53;;
2299;SDS011;1158;48.750;9.078;2023-12-14T14:54:27;17.83;;;9.03;;
2299;SDS011;1158;48.750;9.078;2023-12-14T14:56:56;16.27;;;7.93;;
2299;SDS011;1158;48.750;9.078;2023-12-14T14:59:23;18.40;;;8.03;;
2299;SDS011;1158;48.750;9.078;2023-12-14T15:01:50;13.53;;;7.40;;
2299;SDS011;1158;48.750;9.078;2023-12-14T15:04:17;14.40;;;8.00;;
2299;SDS011;1158;48.750;9.078;2023-12-14T15:06:44;15.33;;;8.27;;
2299;SDS011;1158;48.750;9.078;2023-12-14T15:09:11;17.20;;;7.67;;
2299;SDS011;1158;48.750;9.078;2023-12-14T15:11:38;14.50;;;7.63;;
2299;SDS011;1158;48.750;9.078;2023-12-14T15:14:08;15.50;;;7.50;;